sensor_id;sensor_type;location;lat;lon;timestamp;P1;durP1;ratioP1;P2;durP2;ratioP2
14726;SDS011;7454;51.256;8.176;2022-07-10T00:00:37;11.82;;;2.00;;
14726;SDS011;7454;51.256;8.176;2022-07-10T00:03:03;9.90;;;1.65;;
14726;SDS011;7454;51.256;8.176;2022-07-10T00:05:30;8.10;;;1.60;;
14726;SDS011;7454;51.256;8.176;2022-07-10T00:07:56;12.57;;;1.85;;
14726;SDS011;7454;51.256;8.176;2022-07-10T00:10:23;15.15;;;1.83;;
14726;SDS011;7454;51.256;8.176;2022-07-10T00:12:50;9.32;;;1.58;;
14726;SDS011;7454;51.256;8.176;2022-07-10T00:15:17;8.40;;;1.50;;
14726;SDS011;7454;51.256;8.176;2022-07-10T00:17:43;11.27;;;1.85;;
14726;SDS011;7454;51.256;8.176;2022-07-10T00:20:11;11.52;;;1.67;;
14726;SDS011;7454;51.256;8.176;2022-07-10T00:22:38;8.48;;;1.42;;
14726;SDS011;7454;51.256;8.176;2022-07-10T00:25:06;14.15;;;2.00;;
14726;SDS011;7454;51.256;8.176;2022-07-10T00:27:35;11.45;;;1.70;;
14726;SDS011;7454;51.256;8.176;2022-07-10T00:30:01;9.32;;;1.20;;
14726;SDS011;7454;51.256;8.176;2022-07-10T00:32:28;8.32;;;1.30;;
14726;SDS011;7454;51.256;8.176;2022-07-10T00:34:54;11.93;;;1.70;;
14726;SDS011;7454;51.256;8.176;2022-07-10T00:37:20;10.90;;;1.95;;
14726;SDS011;7454;51.256;8.176;2022-07-10T00:39:46;9.98;;;1.77;;
14726;SDS011;7454;51.256;8.176;2022-07-10T00:42:13;9.82;;;1.70;;
14726;SDS011;7454;51.256;8.176;2022-07-10T00:44:40;8.98;;;1.38;;
14726;SDS011;7454;51.256;8.176;2022-07-10T00:47:08;6.47;;;1.38;;
14726;SDS011;7454;51.256;8.176;2022-07-10T00:49:36;8.15;;;1.50;;
14726;SDS011;7454;51.256;8.176;2022-07-10T00:52:06;7.07;;;1.63;;
14726;SDS011;7454;51.256;8.176;2022-07-10T00:54:35;10.15;;;1.65;;
14726;SDS011;7454;51.256;8.176;2022-07-10T00:57:28;9.90;;;1.60;;
14726;SDS011;7454;51.256;8.176;2022-07-10T00:59:53;10.50;;;1.75;;
14726;SDS011;7454;51.256;8.176;2022-07-10T01:02:19;8.02;;;1.42;;
14726;SDS011;7454;51.256;8.176;2022-07-10T01:04:45;9.73;;;1.55;;
14726;SDS011;7454;51.256;8.176;2022-07-10T01:07:11;12.75;;;1.52;;
14726;SDS011;7454;51.256;8.176;2022-07-10T01:09:40;8.18;;;1.65;;
14726;SDS011;7454;51.256;8.176;2022-07-10T01:12:07;8.68;;;1.50;;
14726;SDS011;7454;51.256;8.176;2022-07-10T01:14:35;9.30;;;1.58;;
14726;SDS011;7454;51.256;8.176;2022-07-10T01:17:04;12.55;;;1.60;;
14726;SDS011;7454;51.256;8.176;2022-07-10T01:19:32;7.28;;;1.58;;
14726;SDS011;7454;51.256;8.176;2022-07-10T01:21:58;10.25;;;1.70;;
14726;SDS011;7454;51.256;8.176;2022-07-10T01:24:24;9.15;;;1.67;;
14726;SDS011;7454;51.256;8.176;2022-07-10T01:26:50;12.85;;;1.40;;
14726;SDS011;7454;51.256;8.176;2022-07-10T01:29:15;10.13;;;1.52;;
14726;SDS011;7454;51.256;8.176;2022-07-10T01:31:41;16.33;;;1.63;;
14726;SDS011;7454;51.256;8.176;2022-07-10T01:34:08;14.27;;;1.98;;
14726;SDS011;7454;51.256;8.176;2022-07-10T01:36:35;9.30;;;2.20;;
14726;SDS011;7454;51.256;8.176;2022-07-10T01:39:02;11.43;;;1.90;;
14726;SDS011;7454;51.256;8.176;2022-07-10T01:41:28;11.98;;;1.83;;
14726;SDS011;7454;51.256;8.176;2022-07-10T01:43:54;13.73;;;1.88;;
14726;SDS011;7454;51.256;8.176;2022-07-10T01:46:20;8.50;;;1.38;;
14726;SDS011;7454;51.256;8.176;2022-07-10T01:48:46;10.32;;;1.60;;
14726;SDS011;7454;51.256;8.176;2022-07-10T01:51:12;11.95;;;1.50;;
14726;SDS011;7454;51.256;8.176;2022-07-10T01:53:38;11.60;;;1.70;;
14726;SDS011;7454;51.256;8.176;2022-07-10T01:56:06;9.55;;;1.55;;
14726;SDS011;7454;51.256;8.176;2022-07-10T01:58:35;11.73;;;3.58;;
14726;SDS011;7454;51.256;8.176;2022-07-10T02:01:01;10.00;;;1.60;;
14726;SDS011;7454;51.256;8.176;2022-07-10T02:03:28;10.20;;;1.30;;
14726;SDS011;7454;51.256;8.176;2022-07-10T02:06:12;9.75;;;1.50;;
14726;SDS011;7454;51.256;8.176;2022-07-10T02:08:38;8.95;;;1.50;;
14726;SDS011;7454;51.256;8.176;2022-07-10T02:11:04;9.82;;;1.42;;
14726;SDS011;7454;51.256;8.176;2022-07-10T02:13:30;26.35;;;1.58;;
14726;SDS011;7454;51.256;8.176;2022-07-10T02:15:57;8.35;;;1.38;;
14726;SDS011;7454;51.256;8.176;2022-07-10T02:18:23;8.77;;;1.30;;
14726;SDS011;7454;51.256;8.176;2022-07-10T02:20:50;9.27;;;1.20;;
14726;SDS011;7454;51.256;8.176;2022-07-10T02:23:17;10.70;;;1.63;;
14726;SDS011;7454;51.256;8.176;2022-07-10T02:25:43;9.95;;;1.80;;
14726;SDS011;7454;51.256;8.176;2022-07-10T02:28:09;15.50;;;1.92;;
14726;SDS011;7454;51.256;8.176;2022-07-10T02:30:35;8.25;;;1.50;;
14726;SDS011;7454;51.256;8.176;2022-07-10T02:33:01;10.27;;;1.70;;
14726;SDS011;7454;51.256;8.176;2022-07-10T02:35:27;14.68;;;2.00;;
14726;SDS011;7454;51.256;8.176;2022-07-10T02:37:53;8.50;;;1.52;;
14726;SDS011;7454;51.256;8.176;2022-07-10T02:40:19;7.85;;;1.17;;
14726;SDS011;7454;51.256;8.176;2022-07-10T02:42:45;7.38;;;1.50;;
14726;SDS011;7454;51.256;8.176;2022-07-10T02:45:11;12.57;;;1.70;;
14726;SDS011;7454;51.256;8.176;2022-07-10T02:47:37;9.82;;;1.70;;
14726;SDS011;7454;51.256;8.176;2022-07-10T02:50:02;10.57;;;1.65;;
14726;SDS011;7454;51.256;8.176;2022-07-10T02:52:29;13.57;;;1.58;;
14726;SDS011;7454;51.256;8.176;2022-07-10T02:54:56;8.68;;;1.50;;
14726;SDS011;7454;51.256;8.176;2022-07-10T02:57:22;8.45;;;1.40;;
14726;SDS011;7454;51.256;8.176;2022-07-10T02:59:49;8.70;;;1.40;;
14726;SDS011;7454;51.256;8.176;2022-07-10T03:02:15;16.33;;;2.17;;
14726;SDS011;7454;51.256;8.176;2022-07-10T03:04:41;14.65;;;1.98;;
14726;SDS011;7454;51.256;8.176;2022-07-10T03:07:07;9.07;;;1.50;;
14726;SDS011;7454;51.256;8.176;2022-07-10T03:09:32;12.50;;;1.70;;
14726;SDS011;7454;51.256;8.176;2022-07-10T03:11:58;11.32;;;1.95;;
14726;SDS011;7454;51.256;8.176;2022-07-10T03:14:25;17.98;;;1.92;;
14726;SDS011;7454;51.256;8.176;2022-07-10T03:16:51;10.20;;;1.42;;
14726;SDS011;7454;51.256;8.176;2022-07-10T03:19:16;12.27;;;2.15;;
14726;SDS011;7454;51.256;8.176;2022-07-10T03:21:42;11.85;;;1.65;;
14726;SDS011;7454;51.256;8.176;2022-07-10T03:24:09;12.07;;;1.95;;
14726;SDS011;7454;51.256;8.176;2022-07-10T03:26:35;14.55;;;2.08;;
14726;SDS011;7454;51.256;8.176;2022-07-10T03:29:00;10.38;;;1.50;;
14726;SDS011;7454;51.256;8.176;2022-07-10T03:31:26;12.27;;;1.77;;
14726;SDS011;7454;51.256;8.176;2022-07-10T03:33:52;12.73;;;1.48;;
14726;SDS011;7454;51.256;8.176;2022-07-10T03:36:18;12.77;;;2.17;;
14726;SDS011;7454;51.256;8.176;2022-07-10T03:38:44;9.90;;;1.70;;
14726;SDS011;7454;51.256;8.176;2022-07-10T03:41:11;12.00;;;1.67;;
14726;SDS011;7454;51.256;8.176;2022-07-10T03:43:40;15.57;;;1.98;;
14726;SDS011;7454;51.256;8.176;2022-07-10T03:46:06;12.25;;;1.70;;
14726;SDS011;7454;51.256;8.176;2022-07-10T03:48:32;11.70;;;1.75;;
14726;SDS011;7454;51.256;8.176;2022-07-10T03:50:58;8.73;;;1.55;;
14726;SDS011;7454;51.256;8.176;2022-07-10T03:53:24;10.88;;;1.52;;
14726;SDS011;7454;51.256;8.176;2022-07-10T03:55:50;14.45;;;2.10;;
14726;SDS011;7454;51.256;8.176;2022-07-10T03:58:16;11.65;;;1.60;;
14726;SDS011;7454;51.256;8.176;2022-07-10T04:00:42;12.25;;;2.05;;
14726;SDS011;7454;51.256;8.176;2022-07-10T04:03:08;13.00;;;2.10;;
14726;SDS011;7454;51.256;8.176;2022-07-10T04:05:34;15.45;;;1.88;;
14726;SDS011;7454;51.256;8.176;2022-07-10T04:08:01;12.77;;;1.88;;
14726;SDS011;7454;51.256;8.176;2022-07-10T04:10:28;12.55;;;1.80;;
14726;SDS011;7454;51.256;8.176;2022-07-10T04:12:56;12.90;;;1.77;;
14726;SDS011;7454;51.256;8.176;2022-07-10T04:15:22;14.45;;;1.90;;
14726;SDS011;7454;51.256;8.176;2022-07-10T04:17:48;9.15;;;1.80;;
14726;SDS011;7454;51.256;8.176;2022-07-10T04:20:15;11.35;;;1.65;;
14726;SDS011;7454;51.256;8.176;2022-07-10T04:22:41;15.02;;;1.73;;
14726;SDS011;7454;51.256;8.176;2022-07-10T04:25:08;17.00;;;2.30;;
14726;SDS011;7454;51.256;8.176;2022-07-10T04:27:34;12.18;;;1.60;;
14726;SDS011;7454;51.256;8.176;2022-07-10T04:30:00;13.18;;;2.20;;
14726;SDS011;7454;51.256;8.176;2022-07-10T04:32:27;15.60;;;1.88;;
14726;SDS011;7454;51.256;8.176;2022-07-10T04:34:53;9.38;;;1.50;;
14726;SDS011;7454;51.256;8.176;2022-07-10T04:37:20;14.43;;;2.17;;
14726;SDS011;7454;51.256;8.176;2022-07-10T04:39:46;12.10;;;2.13;;
14726;SDS011;7454;51.256;8.176;2022-07-10T04:42:12;12.35;;;1.75;;
14726;SDS011;7454;51.256;8.176;2022-07-10T04:44:37;14.05;;;2.15;;
14726;SDS011;7454;51.256;8.176;2022-07-10T04:47:04;11.00;;;1.55;;
14726;SDS011;7454;51.256;8.176;2022-07-10T04:49:31;11.18;;;1.70;;
14726;SDS011;7454;51.256;8.176;2022-07-10T04:51:57;15.25;;;1.65;;
14726;SDS011;7454;51.256;8.176;2022-07-10T04:54:23;13.05;;;1.90;;
14726;SDS011;7454;51.256;8.176;2022-07-10T04:56:49;11.80;;;1.58;;
14726;SDS011;7454;51.256;8.176;2022-07-10T04:59:15;11.10;;;1.50;;
14726;SDS011;7454;51.256;8.176;2022-07-10T05:01:40;13.38;;;1.88;;
14726;SDS011;7454;51.256;8.176;2022-07-10T05:04:06;17.08;;;1.92;;
14726;SDS011;7454;51.256;8.176;2022-07-10T05:06:33;9.27;;;1.60;;
14726;SDS011;7454;51.256;8.176;2022-07-10T05:08:59;11.27;;;2.10;;
14726;SDS011;7454;51.256;8.176;2022-07-10T05:11:26;12.23;;;1.77;;
14726;SDS011;7454;51.256;8.176;2022-07-10T05:13:52;11.43;;;1.58;;
14726;SDS011;7454;51.256;8.176;2022-07-10T05:16:18;16.65;;;2.30;;
14726;SDS011;7454;51.256;8.176;2022-07-10T05:18:45;13.85;;;2.05;;
14726;SDS011;7454;51.256;8.176;2022-07-10T05:21:10;13.07;;;2.25;;
14726;SDS011;7454;51.256;8.176;2022-07-10T05:23:37;12.52;;;1.83;;
14726;SDS011;7454;51.256;8.176;2022-07-10T05:26:04;14.55;;;1.85;;
14726;SDS011;7454;51.256;8.176;2022-07-10T05:28:31;13.73;;;2.13;;
14726;SDS011;7454;51.256;8.176;2022-07-10T05:30:56;19.20;;;2.08;;
14726;SDS011;7454;51.256;8.176;2022-07-10T05:33:22;13.55;;;1.85;;
14726;SDS011;7454;51.256;8.176;2022-07-10T05:35:48;14.90;;;1.88;;
14726;SDS011;7454;51.256;8.176;2022-07-10T05:38:14;12.35;;;1.80;;
14726;SDS011;7454;51.256;8.176;2022-07-10T05:40:42;14.27;;;1.70;;
14726;SDS011;7454;51.256;8.176;2022-07-10T05:43:08;13.15;;;1.85;;
14726;SDS011;7454;51.256;8.176;2022-07-10T05:45:35;12.15;;;2.08;;
14726;SDS011;7454;51.256;8.176;2022-07-10T05:48:00;11.57;;;2.20;;
14726;SDS011;7454;51.256;8.176;2022-07-10T05:50:26;13.27;;;1.52;;
14726;SDS011;7454;51.256;8.176;2022-07-10T05:52:52;19.13;;;2.20;;
14726;SDS011;7454;51.256;8.176;2022-07-10T05:55:18;14.68;;;2.55;;
14726;SDS011;7454;51.256;8.176;2022-07-10T05:57:43;11.25;;;1.90;;
14726;SDS011;7454;51.256;8.176;2022-07-10T06:00:09;17.15;;;2.40;;
14726;SDS011;7454;51.256;8.176;2022-07-10T06:02:38;15.77;;;2.22;;
14726;SDS011;7454;51.256;8.176;2022-07-10T06:05:04;15.45;;;2.55;;
14726;SDS011;7454;51.256;8.176;2022-07-10T06:07:31;14.52;;;2.28;;
14726;SDS011;7454;51.256;8.176;2022-07-10T06:09:57;10.93;;;2.13;;
14726;SDS011;7454;51.256;8.176;2022-07-10T06:12:23;15.60;;;2.40;;
14726;SDS011;7454;51.256;8.176;2022-07-10T06:14:48;10.85;;;1.92;;
14726;SDS011;7454;51.256;8.176;2022-07-10T06:17:14;11.85;;;2.20;;
14726;SDS011;7454;51.256;8.176;2022-07-10T06:19:40;15.05;;;2.03;;
14726;SDS011;7454;51.256;8.176;2022-07-10T06:22:06;23.13;;;2.35;;
14726;SDS011;7454;51.256;8.176;2022-07-10T06:24:50;15.00;;;2.33;;
14726;SDS011;7454;51.256;8.176;2022-07-10T06:27:16;19.23;;;2.17;;
14726;SDS011;7454;51.256;8.176;2022-07-10T06:29:42;12.27;;;2.05;;
14726;SDS011;7454;51.256;8.176;2022-07-10T06:32:08;20.15;;;2.40;;
14726;SDS011;7454;51.256;8.176;2022-07-10T06:34:34;13.55;;;2.13;;
14726;SDS011;7454;51.256;8.176;2022-07-10T06:37:00;12.80;;;2.10;;
14726;SDS011;7454;51.256;8.176;2022-07-10T06:39:26;15.95;;;2.25;;
14726;SDS011;7454;51.256;8.176;2022-07-10T06:41:53;11.30;;;2.13;;
14726;SDS011;7454;51.256;8.176;2022-07-10T06:44:19;10.82;;;2.17;;
14726;SDS011;7454;51.256;8.176;2022-07-10T06:46:46;13.98;;;2.33;;
14726;SDS011;7454;51.256;8.176;2022-07-10T06:49:32;14.95;;;2.30;;
14726;SDS011;7454;51.256;8.176;2022-07-10T06:51:58;16.65;;;2.17;;
14726;SDS011;7454;51.256;8.176;2022-07-10T06:54:24;10.43;;;1.60;;
14726;SDS011;7454;51.256;8.176;2022-07-10T06:56:50;14.40;;;2.22;;
14726;SDS011;7454;51.256;8.176;2022-07-10T06:59:16;13.27;;;2.50;;
14726;SDS011;7454;51.256;8.176;2022-07-10T07:01:41;11.35;;;1.80;;
14726;SDS011;7454;51.256;8.176;2022-07-10T07:04:07;11.57;;;2.08;;
14726;SDS011;7454;51.256;8.176;2022-07-10T07:06:33;8.52;;;1.80;;
14726;SDS011;7454;51.256;8.176;2022-07-10T07:08:59;13.13;;;1.70;;
14726;SDS011;7454;51.256;8.176;2022-07-10T07:11:24;14.23;;;1.75;;
14726;SDS011;7454;51.256;8.176;2022-07-10T07:13:50;8.48;;;1.65;;
14726;SDS011;7454;51.256;8.176;2022-07-10T07:16:16;12.68;;;2.33;;
14726;SDS011;7454;51.256;8.176;2022-07-10T07:18:45;13.73;;;1.85;;
14726;SDS011;7454;51.256;8.176;2022-07-10T07:21:17;13.07;;;2.00;;
14726;SDS011;7454;51.256;8.176;2022-07-10T07:24:01;10.65;;;1.77;;
14726;SDS011;7454;51.256;8.176;2022-07-10T07:26:27;11.32;;;2.00;;
14726;SDS011;7454;51.256;8.176;2022-07-10T07:28:53;11.25;;;1.67;;
14726;SDS011;7454;51.256;8.176;2022-07-10T07:31:19;13.60;;;1.80;;
14726;SDS011;7454;51.256;8.176;2022-07-10T07:33:45;15.90;;;1.90;;
14726;SDS011;7454;51.256;8.176;2022-07-10T07:36:10;12.75;;;1.75;;
14726;SDS011;7454;51.256;8.176;2022-07-10T07:38:36;10.88;;;1.92;;
14726;SDS011;7454;51.256;8.176;2022-07-10T07:41:02;10.80;;;1.65;;
14726;SDS011;7454;51.256;8.176;2022-07-10T07:43:28;12.73;;;2.20;;
14726;SDS011;7454;51.256;8.176;2022-07-10T07:45:53;13.63;;;1.80;;
14726;SDS011;7454;51.256;8.176;2022-07-10T07:48:19;9.93;;;1.80;;
14726;SDS011;7454;51.256;8.176;2022-07-10T07:50:45;16.40;;;2.05;;
14726;SDS011;7454;51.256;8.176;2022-07-10T07:53:10;16.15;;;1.60;;
14726;SDS011;7454;51.256;8.176;2022-07-10T07:55:37;12.05;;;1.83;;
14726;SDS011;7454;51.256;8.176;2022-07-10T07:58:03;9.73;;;1.45;;
14726;SDS011;7454;51.256;8.176;2022-07-10T08:00:30;11.45;;;1.95;;
14726;SDS011;7454;51.256;8.176;2022-07-10T08:02:56;13.50;;;1.75;;
14726;SDS011;7454;51.256;8.176;2022-07-10T08:05:23;15.25;;;1.88;;
14726;SDS011;7454;51.256;8.176;2022-07-10T08:07:51;14.63;;;1.90;;
14726;SDS011;7454;51.256;8.176;2022-07-10T08:10:24;11.18;;;1.95;;
14726;SDS011;7454;51.256;8.176;2022-07-10T08:12:51;10.75;;;1.50;;
14726;SDS011;7454;51.256;8.176;2022-07-10T08:15:18;11.90;;;1.60;;
14726;SDS011;7454;51.256;8.176;2022-07-10T08:17:53;12.60;;;1.90;;
14726;SDS011;7454;51.256;8.176;2022-07-10T08:20:23;10.32;;;1.83;;
14726;SDS011;7454;51.256;8.176;2022-07-10T08:22:50;9.00;;;1.30;;
14726;SDS011;7454;51.256;8.176;2022-07-10T08:25:18;11.68;;;1.67;;
14726;SDS011;7454;51.256;8.176;2022-07-10T08:27:45;12.68;;;1.38;;
14726;SDS011;7454;51.256;8.176;2022-07-10T08:30:11;9.10;;;1.35;;
14726;SDS011;7454;51.256;8.176;2022-07-10T08:32:38;8.45;;;1.50;;
14726;SDS011;7454;51.256;8.176;2022-07-10T08:35:04;15.98;;;1.55;;
14726;SDS011;7454;51.256;8.176;2022-07-10T08:37:38;9.68;;;1.75;;
14726;SDS011;7454;51.256;8.176;2022-07-10T08:40:06;8.25;;;1.35;;
14726;SDS011;7454;51.256;8.176;2022-07-10T08:42:38;7.75;;;1.30;;
14726;SDS011;7454;51.256;8.176;2022-07-10T08:45:05;10.02;;;1.88;;
14726;SDS011;7454;51.256;8.176;2022-07-10T08:47:34;10.63;;;1.38;;
14726;SDS011;7454;51.256;8.176;2022-07-10T08:50:00;12.45;;;1.50;;
14726;SDS011;7454;51.256;8.176;2022-07-10T08:52:27;8.18;;;1.42;;
14726;SDS011;7454;51.256;8.176;2022-07-10T08:55:35;12.75;;;1.60;;
14726;SDS011;7454;51.256;8.176;2022-07-10T08:58:02;8.50;;;1.52;;
14726;SDS011;7454;51.256;8.176;2022-07-10T09:00:29;9.98;;;1.42;;
14726;SDS011;7454;51.256;8.176;2022-07-10T09:02:56;11.70;;;1.83;;
14726;SDS011;7454;51.256;8.176;2022-07-10T09:05:25;8.82;;;1.35;;
14726;SDS011;7454;51.256;8.176;2022-07-10T09:07:51;10.60;;;2.13;;
14726;SDS011;7454;51.256;8.176;2022-07-10T09:10:24;9.77;;;1.55;;
14726;SDS011;7454;51.256;8.176;2022-07-10T09:15:18;10.50;;;1.88;;
14726;SDS011;7454;51.256;8.176;2022-07-10T09:18:01;10.48;;;1.67;;
14726;SDS011;7454;51.256;8.176;2022-07-10T09:20:31;12.98;;;1.65;;
14726;SDS011;7454;51.256;8.176;2022-07-10T09:25:48;9.97;;;1.70;;
14726;SDS011;7454;51.256;8.176;2022-07-10T09:28:17;18.27;;;1.98;;
14726;SDS011;7454;51.256;8.176;2022-07-10T09:30:47;8.60;;;1.50;;
14726;SDS011;7454;51.256;8.176;2022-07-10T09:33:24;10.32;;;1.48;;
14726;SDS011;7454;51.256;8.176;2022-07-10T09:43:44;9.43;;;1.80;;
14726;SDS011;7454;51.256;8.176;2022-07-10T09:46:15;10.75;;;1.75;;
14726;SDS011;7454;51.256;8.176;2022-07-10T09:48:43;13.07;;;1.90;;
14726;SDS011;7454;51.256;8.176;2022-07-10T09:51:09;17.05;;;1.77;;
14726;SDS011;7454;51.256;8.176;2022-07-10T09:53:39;13.63;;;1.88;;
14726;SDS011;7454;51.256;8.176;2022-07-10T09:56:10;10.20;;;1.70;;
14726;SDS011;7454;51.256;8.176;2022-07-10T09:58:37;13.77;;;2.10;;
14726;SDS011;7454;51.256;8.176;2022-07-10T10:01:05;9.60;;;1.63;;
14726;SDS011;7454;51.256;8.176;2022-07-10T10:03:33;13.32;;;2.22;;
14726;SDS011;7454;51.256;8.176;2022-07-10T10:06:13;15.85;;;1.85;;
14726;SDS011;7454;51.256;8.176;2022-07-10T10:11:31;11.07;;;1.73;;
14726;SDS011;7454;51.256;8.176;2022-07-10T10:14:00;10.52;;;1.90;;
14726;SDS011;7454;51.256;8.176;2022-07-10T10:16:27;9.05;;;1.70;;
14726;SDS011;7454;51.256;8.176;2022-07-10T10:18:55;11.25;;;1.80;;
14726;SDS011;7454;51.256;8.176;2022-07-10T10:21:39;14.07;;;3.50;;
14726;SDS011;7454;51.256;8.176;2022-07-10T10:24:05;10.95;;;1.70;;
14726;SDS011;7454;51.256;8.176;2022-07-10T10:26:32;7.50;;;1.50;;
14726;SDS011;7454;51.256;8.176;2022-07-10T10:29:01;8.55;;;1.50;;
14726;SDS011;7454;51.256;8.176;2022-07-10T10:31:30;11.60;;;1.55;;
14726;SDS011;7454;51.256;8.176;2022-07-10T10:33:57;10.75;;;1.60;;
14726;SDS011;7454;51.256;8.176;2022-07-10T10:39:10;9.77;;;1.80;;
14726;SDS011;7454;51.256;8.176;2022-07-10T10:41:51;7.18;;;1.55;;
14726;SDS011;7454;51.256;8.176;2022-07-10T10:44:19;12.63;;;1.70;;
14726;SDS011;7454;51.256;8.176;2022-07-10T10:49:15;10.60;;;1.58;;
14726;SDS011;7454;51.256;8.176;2022-07-10T11:00:13;13.73;;;1.50;;
14726;SDS011;7454;51.256;8.176;2022-07-10T11:03:09;9.75;;;1.52;;
14726;SDS011;7454;51.256;8.176;2022-07-10T11:05:49;9.25;;;1.75;;
14726;SDS011;7454;51.256;8.176;2022-07-10T11:08:34;12.27;;;1.73;;
14726;SDS011;7454;51.256;8.176;2022-07-10T11:11:43;12.65;;;1.67;;
14726;SDS011;7454;51.256;8.176;2022-07-10T11:14:03;9.82;;;1.80;;
14726;SDS011;7454;51.256;8.176;2022-07-10T11:16:30;8.95;;;1.63;;
14726;SDS011;7454;51.256;8.176;2022-07-10T11:18:57;8.98;;;1.30;;
14726;SDS011;7454;51.256;8.176;2022-07-10T11:21:24;16.52;;;1.95;;
14726;SDS011;7454;51.256;8.176;2022-07-10T11:23:58;10.25;;;1.55;;
14726;SDS011;7454;51.256;8.176;2022-07-10T11:29:08;8.40;;;1.48;;
14726;SDS011;7454;51.256;8.176;2022-07-10T11:31:34;11.57;;;1.52;;
14726;SDS011;7454;51.256;8.176;2022-07-10T11:34:05;8.00;;;1.52;;
14726;SDS011;7454;51.256;8.176;2022-07-10T11:36:31;13.30;;;1.60;;
14726;SDS011;7454;51.256;8.176;2022-07-10T11:38:58;6.97;;;1.38;;
14726;SDS011;7454;51.256;8.176;2022-07-10T11:41:26;7.45;;;1.23;;
14726;SDS011;7454;51.256;8.176;2022-07-10T11:43:53;9.45;;;1.40;;
14726;SDS011;7454;51.256;8.176;2022-07-10T11:46:27;8.35;;;1.40;;
14726;SDS011;7454;51.256;8.176;2022-07-10T11:48:59;7.20;;;1.40;;
14726;SDS011;7454;51.256;8.176;2022-07-10T11:56:26;8.88;;;1.70;;
14726;SDS011;7454;51.256;8.176;2022-07-10T11:59:16;7.30;;;1.63;;
14726;SDS011;7454;51.256;8.176;2022-07-10T12:01:46;10.70;;;1.70;;
14726;SDS011;7454;51.256;8.176;2022-07-10T12:04:15;8.05;;;1.67;;
14726;SDS011;7454;51.256;8.176;2022-07-10T12:06:44;10.30;;;1.67;;
14726;SDS011;7454;51.256;8.176;2022-07-10T12:09:12;8.35;;;1.50;;
14726;SDS011;7454;51.256;8.176;2022-07-10T12:11:40;6.78;;;1.27;;
14726;SDS011;7454;51.256;8.176;2022-07-10T12:16:43;4.90;;;1.20;;
14726;SDS011;7454;51.256;8.176;2022-07-10T12:19:20;10.13;;;1.67;;
14726;SDS011;7454;51.256;8.176;2022-07-10T12:21:53;4.85;;;1.45;;
14726;SDS011;7454;51.256;8.176;2022-07-10T12:24:19;6.55;;;1.63;;
14726;SDS011;7454;51.256;8.176;2022-07-10T12:26:46;8.10;;;1.52;;
14726;SDS011;7454;51.256;8.176;2022-07-10T12:31:49;7.10;;;1.27;;
14726;SDS011;7454;51.256;8.176;2022-07-10T12:34:17;7.68;;;1.55;;
14726;SDS011;7454;51.256;8.176;2022-07-10T12:36:51;10.27;;;1.40;;
14726;SDS011;7454;51.256;8.176;2022-07-10T12:39:19;6.22;;;1.40;;
14726;SDS011;7454;51.256;8.176;2022-07-10T12:41:57;5.85;;;1.35;;
14726;SDS011;7454;51.256;8.176;2022-07-10T12:49:50;8.10;;;1.10;;
14726;SDS011;7454;51.256;8.176;2022-07-10T12:52:32;3.72;;;1.10;;
14726;SDS011;7454;51.256;8.176;2022-07-10T12:57:57;5.88;;;1.10;;
14726;SDS011;7454;51.256;8.176;2022-07-10T13:00:26;4.25;;;1.02;;
14726;SDS011;7454;51.256;8.176;2022-07-10T13:02:59;4.20;;;1.08;;
14726;SDS011;7454;51.256;8.176;2022-07-10T13:05:40;5.17;;;1.20;;
14726;SDS011;7454;51.256;8.176;2022-07-10T13:08:08;4.53;;;1.02;;
14726;SDS011;7454;51.256;8.176;2022-07-10T13:10:48;2.78;;;0.80;;
14726;SDS011;7454;51.256;8.176;2022-07-10T13:13:19;1.88;;;0.75;;
14726;SDS011;7454;51.256;8.176;2022-07-10T13:15:45;3.05;;;0.75;;
14726;SDS011;7454;51.256;8.176;2022-07-10T13:18:15;2.13;;;0.50;;
14726;SDS011;7454;51.256;8.176;2022-07-10T13:20:46;1.60;;;0.55;;
14726;SDS011;7454;51.256;8.176;2022-07-10T13:23:14;4.15;;;0.80;;
14726;SDS011;7454;51.256;8.176;2022-07-10T13:25:41;2.67;;;0.80;;
14726;SDS011;7454;51.256;8.176;2022-07-10T13:28:08;3.35;;;0.60;;
14726;SDS011;7454;51.256;8.176;2022-07-10T13:30:37;3.08;;;0.63;;
14726;SDS011;7454;51.256;8.176;2022-07-10T13:33:03;1.13;;;0.50;;
14726;SDS011;7454;51.256;8.176;2022-07-10T13:35:29;1.73;;;0.70;;
14726;SDS011;7454;51.256;8.176;2022-07-10T13:37:56;2.30;;;0.75;;
14726;SDS011;7454;51.256;8.176;2022-07-10T13:40:29;2.65;;;0.82;;
14726;SDS011;7454;51.256;8.176;2022-07-10T13:42:58;2.30;;;0.80;;
14726;SDS011;7454;51.256;8.176;2022-07-10T13:45:24;6.13;;;1.63;;
14726;SDS011;7454;51.256;8.176;2022-07-10T13:47:52;4.80;;;2.50;;
14726;SDS011;7454;51.256;8.176;2022-07-10T13:50:21;3.92;;;1.50;;
14726;SDS011;7454;51.256;8.176;2022-07-10T13:52:48;3.83;;;1.15;;
14726;SDS011;7454;51.256;8.176;2022-07-10T13:55:14;2.60;;;1.10;;
14726;SDS011;7454;51.256;8.176;2022-07-10T13:57:41;3.20;;;1.10;;
14726;SDS011;7454;51.256;8.176;2022-07-10T14:00:07;5.53;;;1.60;;
14726;SDS011;7454;51.256;8.176;2022-07-10T14:02:37;3.70;;;1.38;;
14726;SDS011;7454;51.256;8.176;2022-07-10T14:05:03;3.90;;;1.50;;
14726;SDS011;7454;51.256;8.176;2022-07-10T14:07:30;3.75;;;1.60;;
14726;SDS011;7454;51.256;8.176;2022-07-10T14:09:56;4.32;;;1.80;;
14726;SDS011;7454;51.256;8.176;2022-07-10T14:12:23;4.15;;;1.80;;
14726;SDS011;7454;51.256;8.176;2022-07-10T14:14:49;4.55;;;2.00;;
14726;SDS011;7454;51.256;8.176;2022-07-10T14:17:15;5.05;;;2.35;;
14726;SDS011;7454;51.256;8.176;2022-07-10T14:19:40;4.97;;;2.20;;
14726;SDS011;7454;51.256;8.176;2022-07-10T14:22:06;4.90;;;2.20;;
14726;SDS011;7454;51.256;8.176;2022-07-10T14:24:33;5.60;;;2.40;;
14726;SDS011;7454;51.256;8.176;2022-07-10T14:26:59;5.50;;;2.33;;
14726;SDS011;7454;51.256;8.176;2022-07-10T14:29:25;5.82;;;2.30;;
14726;SDS011;7454;51.256;8.176;2022-07-10T14:31:51;5.03;;;2.17;;
14726;SDS011;7454;51.256;8.176;2022-07-10T14:34:18;4.57;;;2.20;;
14726;SDS011;7454;51.256;8.176;2022-07-10T14:36:44;6.18;;;2.60;;
14726;SDS011;7454;51.256;8.176;2022-07-10T14:39:10;5.22;;;2.30;;
14726;SDS011;7454;51.256;8.176;2022-07-10T14:41:37;5.07;;;2.33;;
14726;SDS011;7454;51.256;8.176;2022-07-10T14:44:04;6.75;;;2.83;;
14726;SDS011;7454;51.256;8.176;2022-07-10T14:46:31;6.85;;;2.60;;
14726;SDS011;7454;51.256;8.176;2022-07-10T14:48:58;5.80;;;2.60;;
14726;SDS011;7454;51.256;8.176;2022-07-10T14:51:25;5.95;;;2.22;;
14726;SDS011;7454;51.256;8.176;2022-07-10T14:53:51;5.00;;;2.50;;
14726;SDS011;7454;51.256;8.176;2022-07-10T14:56:16;4.47;;;1.80;;
14726;SDS011;7454;51.256;8.176;2022-07-10T14:58:44;4.50;;;1.63;;
14726;SDS011;7454;51.256;8.176;2022-07-10T15:01:11;4.57;;;1.48;;
14726;SDS011;7454;51.256;8.176;2022-07-10T15:03:37;3.85;;;1.60;;
14726;SDS011;7454;51.256;8.176;2022-07-10T15:06:03;4.63;;;1.65;;
14726;SDS011;7454;51.256;8.176;2022-07-10T15:08:29;4.03;;;1.63;;
14726;SDS011;7454;51.256;8.176;2022-07-10T15:10:56;4.63;;;1.60;;
14726;SDS011;7454;51.256;8.176;2022-07-10T15:13:24;6.05;;;1.80;;
14726;SDS011;7454;51.256;8.176;2022-07-10T15:15:51;3.17;;;1.27;;
14726;SDS011;7454;51.256;8.176;2022-07-10T15:18:19;2.90;;;1.23;;
14726;SDS011;7454;51.256;8.176;2022-07-10T15:20:45;5.50;;;1.80;;
14726;SDS011;7454;51.256;8.176;2022-07-10T15:23:12;4.70;;;1.85;;
14726;SDS011;7454;51.256;8.176;2022-07-10T15:25:39;4.60;;;1.85;;
14726;SDS011;7454;51.256;8.176;2022-07-10T15:28:06;4.80;;;1.77;;
14726;SDS011;7454;51.256;8.176;2022-07-10T15:30:33;4.45;;;1.60;;
14726;SDS011;7454;51.256;8.176;2022-07-10T15:33:01;5.55;;;2.40;;
14726;SDS011;7454;51.256;8.176;2022-07-10T15:35:33;4.18;;;1.50;;
14726;SDS011;7454;51.256;8.176;2022-07-10T15:37:59;5.57;;;1.77;;
14726;SDS011;7454;51.256;8.176;2022-07-10T15:40:26;3.90;;;1.45;;
14726;SDS011;7454;51.256;8.176;2022-07-10T15:42:53;4.72;;;1.60;;
14726;SDS011;7454;51.256;8.176;2022-07-10T15:45:21;3.95;;;1.40;;
14726;SDS011;7454;51.256;8.176;2022-07-10T15:47:48;3.88;;;1.20;;